sensor_id;sensor_type;location;lat;lon;timestamp;pressure;altitude;pressure_sealevel;temperature;humidity
59063;BME280;44851;45.648;9.004;2023-07-13T00:01:44;98777.53;;;21.37;70.98
59063;BME280;44851;45.648;9.004;2023-07-13T00:04:11;98771.09;;;21.19;71.36
59063;BME280;44851;45.648;9.004;2023-07-13T00:06:38;98765.81;;;21.19;72.14
59063;BME280;44851;45.648;9.004;2023-07-13T00:09:03;98761.78;;;21.10;72.55
59063;BME280;44851;45.648;9.004;2023-07-13T00:11:29;98752.78;;;21.11;72.07
59063;BME280;44851;45.648;9.004;2023-07-13T00:13:55;98753.00;;;21.16;72.06
59063;BME280;44851;45.648;9.004;2023-07-13T00:16:20;98753.16;;;21.21;72.27
59063;BME280;44851;45.648;9.004;2023-07-13T00:18:46;98761.34;;;21.13;71.84
59063;BME280;44851;45.648;9.004;2023-07-13T00:21:12;98755.25;;;21.06;72.60
59063;BME280;44851;45.648;9.004;2023-07-13T00:23:40;98760.13;;;21.09;71.12
59063;BME280;44851;45.648;9.004;2023-07-13T00:26:08;98762.16;;;21.14;70.89
59063;BME280;44851;45.648;9.004;2023-07-13T00:28:34;98760.50;;;21.19;71.50
59063;BME280;44851;45.648;9.004;2023-07-13T00:31:00;98762.16;;;21.20;71.64
59063;BME280;44851;45.648;9.004;2023-07-13T00:33:28;98756.16;;;21.32;71.17
59063;BME280;44851;45.648;9.004;2023-07-13T00:35:54;98765.56;;;21.27;71.26
59063;BME280;44851;45.648;9.004;2023-07-13T00:38:20;98775.53;;;21.32;71.18
59063;BME280;44851;45.648;9.004;2023-07-13T00:40:45;98768.84;;;21.23;70.80
59063;BME280;44851;45.648;9.004;2023-07-13T00:43:14;98768.59;;;21.31;70.92
59063;BME280;44851;45.648;9.004;2023-07-13T00:48:15;98764.75;;;21.27;71.53
59063;BME280;44851;45.648;9.004;2023-07-13T00:50:44;98751.28;;;21.28;71.54
59063;BME280;44851;45.648;9.004;2023-07-13T00:53:10;98752.69;;;21.31;72.28
59063;BME280;44851;45.648;9.004;2023-07-13T00:55:37;98744.53;;;21.33;72.38
59063;BME280;44851;45.648;9.004;2023-07-13T00:58:04;98738.25;;;20.89;70.86
59063;BME280;44851;45.648;9.004;2023-07-13T01:00:32;98749.09;;;21.19;71.77
59063;BME280;44851;45.648;9.004;2023-07-13T01:02:59;98745.81;;;21.23;72.18
59063;BME280;44851;45.648;9.004;2023-07-13T01:05:29;98737.91;;;21.10;72.09
59063;BME280;44851;45.648;9.004;2023-07-13T01:07:57;98746.50;;;21.06;72.50
59063;BME280;44851;45.648;9.004;2023-07-13T01:10:24;98744.59;;;21.19;72.76
59063;BME280;44851;45.648;9.004;2023-07-13T01:12:51;98755.03;;;21.14;71.04
59063;BME280;44851;45.648;9.004;2023-07-13T01:18:10;98762.56;;;21.17;72.63
59063;BME280;44851;45.648;9.004;2023-07-13T01:20:36;98762.97;;;21.14;71.27
59063;BME280;44851;45.648;9.004;2023-07-13T01:23:07;98769.44;;;21.25;71.36
59063;BME280;44851;45.648;9.004;2023-07-13T01:25:34;98761.97;;;21.09;71.06
59063;BME280;44851;45.648;9.004;2023-07-13T01:28:01;98766.72;;;21.00;71.30
59063;BME280;44851;45.648;9.004;2023-07-13T01:30:26;98770.31;;;21.12;71.86
59063;BME280;44851;45.648;9.004;2023-07-13T01:32:52;98760.31;;;21.14;71.92
59063;BME280;44851;45.648;9.004;2023-07-13T01:35:17;98768.28;;;21.14;71.67
59063;BME280;44851;45.648;9.004;2023-07-13T01:37:43;98762.22;;;21.00;71.58
59063;BME280;44851;45.648;9.004;2023-07-13T01:40:11;98766.84;;;21.12;72.25
59063;BME280;44851;45.648;9.004;2023-07-13T01:42:38;98778.09;;;21.07;72.06
59063;BME280;44851;45.648;9.004;2023-07-13T01:45:04;98778.50;;;21.04;71.99
59063;BME280;44851;45.648;9.004;2023-07-13T01:47:30;98776.69;;;21.05;72.34
59063;BME280;44851;45.648;9.004;2023-07-13T01:49:56;98777.31;;;21.00;72.65
59063;BME280;44851;45.648;9.004;2023-07-13T01:52:22;98772.44;;;20.97;72.16
59063;BME280;44851;45.648;9.004;2023-07-13T01:54:48;98770.53;;;21.04;72.86
59063;BME280;44851;45.648;9.004;2023-07-13T01:57:13;98769.16;;;21.01;71.79
59063;BME280;44851;45.648;9.004;2023-07-13T01:59:39;98767.91;;;21.04;72.58
59063;BME280;44851;45.648;9.004;2023-07-13T02:02:04;98768.28;;;21.08;72.73
59063;BME280;44851;45.648;9.004;2023-07-13T02:04:30;98764.41;;;21.10;72.80
59063;BME280;44851;45.648;9.004;2023-07-13T02:06:55;98757.06;;;21.12;72.84
59063;BME280;44851;45.648;9.004;2023-07-13T02:09:21;98762.00;;;21.02;72.29
59063;BME280;44851;45.648;9.004;2023-07-13T02:11:46;98756.06;;;21.07;73.02
59063;BME280;44851;45.648;9.004;2023-07-13T02:14:11;98750.56;;;21.08;72.82
59063;BME280;44851;45.648;9.004;2023-07-13T02:16:37;98756.47;;;21.10;73.20
59063;BME280;44851;45.648;9.004;2023-07-13T02:19:03;98751.19;;;21.03;72.80
59063;BME280;44851;45.648;9.004;2023-07-13T02:21:28;98756.25;;;21.12;73.17
59063;BME280;44851;45.648;9.004;2023-07-13T02:23:54;98756.47;;;21.10;73.53
59063;BME280;44851;45.648;9.004;2023-07-13T02:26:20;98757.25;;;21.17;72.77
59063;BME280;44851;45.648;9.004;2023-07-13T02:28:45;98755.00;;;21.21;72.80
59063;BME280;44851;45.648;9.004;2023-07-13T02:31:13;98745.47;;;21.13;72.02
59063;BME280;44851;45.648;9.004;2023-07-13T02:33:38;98746.69;;;21.11;72.33
59063;BME280;44851;45.648;9.004;2023-07-13T02:36:04;98751.41;;;21.02;72.57
59063;BME280;44851;45.648;9.004;2023-07-13T02:38:31;98747.56;;;20.98;72.61
59063;BME280;44851;45.648;9.004;2023-07-13T02:40:59;98745.16;;;20.90;72.58
59063;BME280;44851;45.648;9.004;2023-07-13T02:43:24;98752.94;;;20.85;72.40
59063;BME280;44851;45.648;9.004;2023-07-13T02:45:50;98757.81;;;20.88;72.71
59063;BME280;44851;45.648;9.004;2023-07-13T02:48:15;98756.81;;;20.89;72.80
59063;BME280;44851;45.648;9.004;2023-07-13T02:50:41;98762.28;;;20.87;72.35
59063;BME280;44851;45.648;9.004;2023-07-13T02:53:06;98771.31;;;20.80;71.60
59063;BME280;44851;45.648;9.004;2023-07-13T02:55:31;98763.72;;;20.90;73.63
59063;BME280;44851;45.648;9.004;2023-07-13T02:57:57;98760.88;;;20.85;72.34
59063;BME280;44851;45.648;9.004;2023-07-13T03:00:23;98759.50;;;20.75;72.40
59063;BME280;44851;45.648;9.004;2023-07-13T03:02:48;98765.56;;;20.83;72.79
59063;BME280;44851;45.648;9.004;2023-07-13T03:05:15;98761.91;;;20.84;72.44
59063;BME280;44851;45.648;9.004;2023-07-13T03:07:41;98758.28;;;20.71;72.95
59063;BME280;44851;45.648;9.004;2023-07-13T03:10:08;98752.59;;;20.74;72.67
59063;BME280;44851;45.648;9.004;2023-07-13T03:12:34;98746.63;;;20.86;73.29
59063;BME280;44851;45.648;9.004;2023-07-13T03:14:59;98741.09;;;20.87;72.56
59063;BME280;44851;45.648;9.004;2023-07-13T03:17:25;98743.97;;;20.86;72.37
59063;BME280;44851;45.648;9.004;2023-07-13T03:19:50;98745.38;;;20.88;72.25
59063;BME280;44851;45.648;9.004;2023-07-13T03:22:17;98746.19;;;20.89;71.54
59063;BME280;44851;45.648;9.004;2023-07-13T03:24:43;98745.75;;;20.92;72.57
59063;BME280;44851;45.648;9.004;2023-07-13T03:27:09;98733.31;;;20.92;72.19
59063;BME280;44851;45.648;9.004;2023-07-13T03:29:34;98737.69;;;20.80;72.39
59063;BME280;44851;45.648;9.004;2023-07-13T03:32:00;98740.38;;;20.73;72.90
59063;BME280;44851;45.648;9.004;2023-07-13T03:34:25;98750.97;;;20.67;72.45
59063;BME280;44851;45.648;9.004;2023-07-13T03:36:54;98765.66;;;20.69;72.81
59063;BME280;44851;45.648;9.004;2023-07-13T03:39:19;98763.00;;;20.69;73.19
59063;BME280;44851;45.648;9.004;2023-07-13T03:41:45;98764.66;;;20.64;72.60
59063;BME280;44851;45.648;9.004;2023-07-13T03:44:11;98776.72;;;20.53;72.25
59063;BME280;44851;45.648;9.004;2023-07-13T03:46:36;98769.34;;;20.55;72.75
59063;BME280;44851;45.648;9.004;2023-07-13T03:49:04;98777.09;;;20.63;72.72
59063;BME280;44851;45.648;9.004;2023-07-13T03:51:29;98776.88;;;20.65;72.55
59063;BME280;44851;45.648;9.004;2023-07-13T03:53:56;98772.63;;;20.57;72.49
59063;BME280;44851;45.648;9.004;2023-07-13T03:56:21;98776.53;;;20.48;72.81
59063;BME280;44851;45.648;9.004;2023-07-13T03:58:49;98765.34;;;20.46;72.05
59063;BME280;44851;45.648;9.004;2023-07-13T04:01:17;98764.06;;;20.55;73.46
59063;BME280;44851;45.648;9.004;2023-07-13T04:03:43;98771.78;;;20.63;73.41
59063;BME280;44851;45.648;9.004;2023-07-13T04:06:14;98775.03;;;20.65;72.78
59063;BME280;44851;45.648;9.004;2023-07-13T04:08:41;98767.34;;;20.50;73.25
59063;BME280;44851;45.648;9.004;2023-07-13T04:11:06;98764.50;;;20.52;73.45
59063;BME280;44851;45.648;9.004;2023-07-13T04:13:32;98762.03;;;20.57;73.96
59063;BME280;44851;45.648;9.004;2023-07-13T04:15:57;98762.25;;;20.49;73.51
59063;BME280;44851;45.648;9.004;2023-07-13T04:18:23;98768.56;;;20.48;73.85
59063;BME280;44851;45.648;9.004;2023-07-13T04:20:50;98772.47;;;20.39;73.37
59063;BME280;44851;45.648;9.004;2023-07-13T04:23:16;98773.06;;;20.47;73.35
59063;BME280;44851;45.648;9.004;2023-07-13T04:25:46;98777.13;;;20.50;73.74
59063;BME280;44851;45.648;9.004;2023-07-13T04:28:15;98771.81;;;20.50;73.48
59063;BME280;44851;45.648;9.004;2023-07-13T04:30:40;98773.06;;;20.47;73.18
59063;BME280;44851;45.648;9.004;2023-07-13T04:33:06;98773.91;;;20.41;72.09
59063;BME280;44851;45.648;9.004;2023-07-13T04:35:31;98768.16;;;20.51;73.24
59063;BME280;44851;45.648;9.004;2023-07-13T04:37:57;98782.84;;;20.47;72.81
59063;BME280;44851;45.648;9.004;2023-07-13T04:40:22;98782.59;;;20.55;72.99
59063;BME280;44851;45.648;9.004;2023-07-13T04:42:48;98794.81;;;20.56;73.62
59063;BME280;44851;45.648;9.004;2023-07-13T04:45:14;98796.66;;;20.62;73.55
59063;BME280;44851;45.648;9.004;2023-07-13T04:47:40;98803.59;;;20.57;73.13
59063;BME280;44851;45.648;9.004;2023-07-13T04:50:07;98808.84;;;20.70;73.99
59063;BME280;44851;45.648;9.004;2023-07-13T04:52:34;98806.41;;;20.68;73.53
59063;BME280;44851;45.648;9.004;2023-07-13T04:54:59;98806.41;;;20.68;74.12
59063;BME280;44851;45.648;9.004;2023-07-13T04:57:26;98810.63;;;20.76;74.26
59063;BME280;44851;45.648;9.004;2023-07-13T04:59:52;98814.09;;;20.76;74.06
59063;BME280;44851;45.648;9.004;2023-07-13T05:02:18;98814.28;;;20.82;73.71
59063;BME280;44851;45.648;9.004;2023-07-13T05:04:46;98806.69;;;20.92;73.78
59063;BME280;44851;45.648;9.004;2023-07-13T05:07:12;98805.84;;;20.98;73.45
59063;BME280;44851;45.648;9.004;2023-07-13T05:09:38;98801.00;;;20.95;73.55
59063;BME280;44851;45.648;9.004;2023-07-13T05:12:06;98786.66;;;21.02;74.30
59063;BME280;44851;45.648;9.004;2023-07-13T05:14:31;98798.53;;;21.00;74.17
59063;BME280;44851;45.648;9.004;2023-07-13T05:16:57;98791.59;;;20.99;74.44
59063;BME280;44851;45.648;9.004;2023-07-13T05:19:22;98801.97;;;21.00;74.80
59063;BME280;44851;45.648;9.004;2023-07-13T05:21:48;98798.47;;;21.07;74.44
59063;BME280;44851;45.648;9.004;2023-07-13T05:24:13;98798.06;;;21.03;74.35
59063;BME280;44851;45.648;9.004;2023-07-13T05:26:39;98803.38;;;21.03;74.76
59063;BME280;44851;45.648;9.004;2023-07-13T05:29:04;98802.13;;;21.12;74.52
59063;BME280;44851;45.648;9.004;2023-07-13T05:31:29;98809.06;;;21.07;73.95
59063;BME280;44851;45.648;9.004;2023-07-13T05:33:55;98811.25;;;20.78;73.66
59063;BME280;44851;45.648;9.004;2023-07-13T05:36:20;98820.19;;;20.84;74.45
59063;BME280;44851;45.648;9.004;2023-07-13T05:38:45;98823.31;;;21.12;75.19
59063;BME280;44851;45.648;9.004;2023-07-13T05:41:11;98818.31;;;21.36;75.22
59063;BME280;44851;45.648;9.004;2023-07-13T05:43:36;98831.38;;;21.31;74.79
59063;BME280;44851;45.648;9.004;2023-07-13T05:46:02;98832.19;;;21.38;73.09
59063;BME280;44851;45.648;9.004;2023-07-13T05:48:28;98830.94;;;21.40;74.04
59063;BME280;44851;45.648;9.004;2023-07-13T05:50:53;98831.31;;;21.44;73.97
59063;BME280;44851;45.648;9.004;2023-07-13T05:53:19;98833.38;;;21.42;73.93
59063;BME280;44851;45.648;9.004;2023-07-13T05:55:46;98827.22;;;21.48;73.98
59063;BME280;44851;45.648;9.004;2023-07-13T05:58:18;98821.06;;;21.54;73.99
59063;BME280;44851;45.648;9.004;2023-07-13T06:00:44;98816.09;;;21.64;74.88
59063;BME280;44851;45.648;9.004;2023-07-13T06:03:10;98824.22;;;21.69;71.87
59063;BME280;44851;45.648;9.004;2023-07-13T06:05:36;98820.94;;;21.67;73.29
59063;BME280;44851;45.648;9.004;2023-07-13T06:08:03;98830.38;;;21.63;73.31
59063;BME280;44851;45.648;9.004;2023-07-13T06:10:29;98827.63;;;21.76;73.85
59063;BME280;44851;45.648;9.004;2023-07-13T06:12:57;98830.22;;;21.83;73.91
59063;BME280;44851;45.648;9.004;2023-07-13T06:15:22;98834.31;;;21.86;73.85
59063;BME280;44851;45.648;9.004;2023-07-13T06:17:48;98832.25;;;21.88;73.31
59063;BME280;44851;45.648;9.004;2023-07-13T06:20:14;98830.84;;;22.10;72.38
59063;BME280;44851;45.648;9.004;2023-07-13T06:22:39;98835.88;;;22.18;70.87
59063;BME280;44851;45.648;9.004;2023-07-13T06:25:05;98842.63;;;22.39;70.70
59063;BME280;44851;45.648;9.004;2023-07-13T06:27:30;98852.78;;;22.42;70.93
59063;BME280;44851;45.648;9.004;2023-07-13T06:29:56;98861.63;;;22.36;70.18
59063;BME280;44851;45.648;9.004;2023-07-13T06:32:21;98847.78;;;22.34;71.60
59063;BME280;44851;45.648;9.004;2023-07-13T06:34:46;98851.91;;;22.30;71.96
59063;BME280;44851;45.648;9.004;2023-07-13T06:37:12;98857.75;;;22.39;71.55
59063;BME280;44851;45.648;9.004;2023-07-13T06:39:37;98857.59;;;22.33;71.55
59063;BME280;44851;45.648;9.004;2023-07-13T06:42:03;98855.97;;;22.51;70.96
59063;BME280;44851;45.648;9.004;2023-07-13T06:44:29;98855.97;;;23.06;70.20
59063;BME280;44851;45.648;9.004;2023-07-13T06:46:55;98850.34;;;23.32;69.00
59063;BME280;44851;45.648;9.004;2023-07-13T06:49:20;98842.22;;;23.27;65.70
59063;BME280;44851;45.648;9.004;2023-07-13T06:51:45;98842.59;;;23.61;62.80
59063;BME280;44851;45.648;9.004;2023-07-13T06:54:11;98840.88;;;23.78;64.78
59063;BME280;44851;45.648;9.004;2023-07-13T06:56:36;98843.31;;;23.80;63.17
59063;BME280;44851;45.648;9.004;2023-07-13T06:59:02;98855.06;;;24.14;64.79
59063;BME280;44851;45.648;9.004;2023-07-13T07:01:27;98855.06;;;24.26;65.43
59063;BME280;44851;45.648;9.004;2023-07-13T07:03:52;98849.63;;;24.32;64.42
59063;BME280;44851;45.648;9.004;2023-07-13T07:06:20;98843.28;;;24.57;61.71
59063;BME280;44851;45.648;9.004;2023-07-13T07:08:49;98841.16;;;24.59;62.05
59063;BME280;44851;45.648;9.004;2023-07-13T07:11:18;98837.09;;;24.68;62.01
59063;BME280;44851;45.648;9.004;2023-07-13T07:13:44;98834.41;;;24.80;61.62
59063;BME280;44851;45.648;9.004;2023-07-13T07:16:10;98831.69;;;24.91;62.81
59063;BME280;44851;45.648;9.004;2023-07-13T07:18:35;98830.84;;;25.03;61.87
59063;BME280;44851;45.648;9.004;2023-07-13T07:21:01;98823.53;;;25.10;58.85
59063;BME280;44851;45.648;9.004;2023-07-13T07:23:26;98834.66;;;25.07;62.63
59063;BME280;44851;45.648;9.004;2023-07-13T07:25:52;98833.94;;;25.23;61.04
59063;BME280;44851;45.648;9.004;2023-07-13T07:28:18;98824.06;;;25.24;59.95
59063;BME280;44851;45.648;9.004;2023-07-13T07:30:44;98826.22;;;25.38;61.69
59063;BME280;44851;45.648;9.004;2023-07-13T07:33:10;98834.94;;;25.51;59.52
59063;BME280;44851;45.648;9.004;2023-07-13T07:35:36;98828.44;;;25.58;60.97
59063;BME280;44851;45.648;9.004;2023-07-13T07:38:01;98827.69;;;25.63;57.36
59063;BME280;44851;45.648;9.004;2023-07-13T07:40:27;98834.41;;;25.65;59.15
59063;BME280;44851;45.648;9.004;2023-07-13T07:42:52;98844.41;;;25.87;58.93
59063;BME280;44851;45.648;9.004;2023-07-13T07:45:18;98846.16;;;25.98;58.33
59063;BME280;44851;45.648;9.004;2023-07-13T07:47:44;98840.66;;;26.05;58.96
59063;BME280;44851;45.648;9.004;2023-07-13T07:50:10;98842.44;;;26.16;60.52
59063;BME280;44851;45.648;9.004;2023-07-13T07:52:35;98851.66;;;26.25;61.18
59063;BME280;44851;45.648;9.004;2023-07-13T07:55:00;98852.22;;;26.27;55.61
59063;BME280;44851;45.648;9.004;2023-07-13T07:57:26;98857.31;;;26.45;55.32
59063;BME280;44851;45.648;9.004;2023-07-13T07:59:51;98864.09;;;26.36;55.00
59063;BME280;44851;45.648;9.004;2023-07-13T08:02:17;98864.78;;;26.10;57.47
59063;BME280;44851;45.648;9.004;2023-07-13T08:04:42;98866.78;;;26.36;57.87
59063;BME280;44851;45.648;9.004;2023-07-13T08:07:08;98871.00;;;26.49;54.42
59063;BME280;44851;45.648;9.004;2023-07-13T08:09:34;98880.97;;;25.86;54.20
59063;BME280;44851;45.648;9.004;2023-07-13T08:12:00;98875.44;;;25.76;56.79
59063;BME280;44851;45.648;9.004;2023-07-13T08:14:25;98883.53;;;25.81;55.73
59063;BME280;44851;45.648;9.004;2023-07-13T08:16:50;98877.09;;;26.11;55.89
59063;BME280;44851;45.648;9.004;2023-07-13T08:19:16;98879.03;;;26.32;55.61
59063;BME280;44851;45.648;9.004;2023-07-13T08:21:41;98867.00;;;26.52;54.47
59063;BME280;44851;45.648;9.004;2023-07-13T08:24:10;98865.16;;;26.52;53.81
59063;BME280;44851;45.648;9.004;2023-07-13T08:26:35;98861.81;;;26.62;53.01
59063;BME280;44851;45.648;9.004;2023-07-13T08:29:01;98860.06;;;26.51;53.42
59063;BME280;44851;45.648;9.004;2023-07-13T08:31:27;98854.13;;;26.87;51.67
59063;BME280;44851;45.648;9.004;2023-07-13T08:33:53;98859.84;;;26.96;52.88
59063;BME280;44851;45.648;9.004;2023-07-13T08:36:18;98856.97;;;27.03;53.31
59063;BME280;44851;45.648;9.004;2023-07-13T08:38:43;98855.00;;;27.15;53.61
59063;BME280;44851;45.648;9.004;2023-07-13T08:41:15;98857.06;;;27.08;53.21
59063;BME280;44851;45.648;9.004;2023-07-13T08:43:43;98855.34;;;27.02;53.75
59063;BME280;44851;45.648;9.004;2023-07-13T08:48:52;98854.91;;;26.88;51.86
59063;BME280;44851;45.648;9.004;2023-07-13T08:51:48;98862.06;;;26.82;51.91
59063;BME280;44851;45.648;9.004;2023-07-13T08:54:26;98866.00;;;27.18;51.82
59063;BME280;44851;45.648;9.004;2023-07-13T08:56:54;98865.50;;;27.21;51.72
59063;BME280;44851;45.648;9.004;2023-07-13T08:59:27;98863.88;;;26.77;53.58
59063;BME280;44851;45.648;9.004;2023-07-13T09:02:08;98875.31;;;26.94;52.82
59063;BME280;44851;45.648;9.004;2023-07-13T09:05:04;98873.41;;;27.33;52.87
59063;BME280;44851;45.648;9.004;2023-07-13T09:08:01;98871.47;;;27.56;50.22
59063;BME280;44851;45.648;9.004;2023-07-13T09:13:27;98872.28;;;27.56;50.49
59063;BME280;44851;45.648;9.004;2023-07-13T09:15:59;98874.81;;;27.68;47.49
59063;BME280;44851;45.648;9.004;2023-07-13T09:18:37;98873.78;;;27.74;47.73
59063;BME280;44851;45.648;9.004;2023-07-13T09:21:13;98869.22;;;28.07;49.54
59063;BME280;44851;45.648;9.004;2023-07-13T09:23:40;98879.03;;;28.23;48.16
59063;BME280;44851;45.648;9.004;2023-07-13T09:26:11;98880.69;;;28.29;48.77
59063;BME280;44851;45.648;9.004;2023-07-13T09:28:45;98885.56;;;27.73;49.63
59063;BME280;44851;45.648;9.004;2023-07-13T09:31:23;98883.47;;;27.80;49.54
59063;BME280;44851;45.648;9.004;2023-07-13T09:33:49;98890.63;;;28.01;50.94
59063;BME280;44851;45.648;9.004;2023-07-13T09:38:47;98892.16;;;28.19;49.36
59063;BME280;44851;45.648;9.004;2023-07-13T09:41:31;98894.66;;;28.36;47.62
59063;BME280;44851;45.648;9.004;2023-07-13T09:46:39;98894.59;;;28.26;47.18
59063;BME280;44851;45.648;9.004;2023-07-13T09:49:05;98898.47;;;28.40;48.74
59063;BME280;44851;45.648;9.004;2023-07-13T09:51:30;98893.97;;;28.51;46.69
59063;BME280;44851;45.648;9.004;2023-07-13T09:53:56;98894.84;;;28.67;48.16
59063;BME280;44851;45.648;9.004;2023-07-13T09:56:25;98897.38;;;28.84;49.59
59063;BME280;44851;45.648;9.004;2023-07-13T09:58:52;98891.19;;;28.78;49.16
59063;BME280;44851;45.648;9.004;2023-07-13T10:01:32;98895.94;;;28.71;47.29
59063;BME280;44851;45.648;9.004;2023-07-13T10:03:58;98903.00;;;28.87;47.95
59063;BME280;44851;45.648;9.004;2023-07-13T10:06:23;98894.75;;;28.99;45.28
59063;BME280;44851;45.648;9.004;2023-07-13T10:08:50;98895.34;;;29.16;46.62
59063;BME280;44851;45.648;9.004;2023-07-13T10:13:45;98895.63;;;29.15;45.96
59063;BME280;44851;45.648;9.004;2023-07-13T10:16:11;98899.84;;;28.95;44.27
59063;BME280;44851;45.648;9.004;2023-07-13T10:21:18;98888.50;;;28.78;45.04
59063;BME280;44851;45.648;9.004;2023-07-13T10:23:48;98896.66;;;29.03;46.08
59063;BME280;44851;45.648;9.004;2023-07-13T10:26:22;98891.88;;;29.21;45.41
59063;BME280;44851;45.648;9.004;2023-07-13T10:28:53;98887.16;;;29.53;46.21
59063;BME280;44851;45.648;9.004;2023-07-13T10:31:20;98883.09;;;29.46;45.31
59063;BME280;44851;45.648;9.004;2023-07-13T10:33:46;98885.78;;;29.46;46.08
59063;BME280;44851;45.648;9.004;2023-07-13T10:38:40;98882.31;;;29.55;45.76
59063;BME280;44851;45.648;9.004;2023-07-13T10:41:10;98876.16;;;29.65;45.04
59063;BME280;44851;45.648;9.004;2023-07-13T10:43:43;98877.72;;;29.36;45.96
59063;BME280;44851;45.648;9.004;2023-07-13T10:46:11;98865.97;;;28.79;45.03
59063;BME280;44851;45.648;9.004;2023-07-13T10:48:39;98875.66;;;28.90;47.25
59063;BME280;44851;45.648;9.004;2023-07-13T10:51:06;98871.88;;;28.81;46.67
59063;BME280;44851;45.648;9.004;2023-07-13T10:53:34;98871.41;;;28.99;46.79
59063;BME280;44851;45.648;9.004;2023-07-13T10:56:10;98870.38;;;29.11;47.13
59063;BME280;44851;45.648;9.004;2023-07-13T10:58:44;98863.75;;;29.44;47.05
59063;BME280;44851;45.648;9.004;2023-07-13T11:03:56;98863.53;;;29.71;43.57
59063;BME280;44851;45.648;9.004;2023-07-13T11:08:58;98860.81;;;29.45;45.14
59063;BME280;44851;45.648;9.004;2023-07-13T11:19:25;98838.28;;;30.02;45.04
59063;BME280;44851;45.648;9.004;2023-07-13T11:24:49;98846.81;;;30.35;44.32
59063;BME280;44851;45.648;9.004;2023-07-13T11:27:45;98843.59;;;30.53;43.67
59063;BME280;44851;45.648;9.004;2023-07-13T11:30:31;98844.13;;;30.35;42.84
59063;BME280;44851;45.648;9.004;2023-07-13T11:36:15;98836.06;;;30.35;42.46
59063;BME280;44851;45.648;9.004;2023-07-13T11:38:48;98850.31;;;30.46;42.93
59063;BME280;44851;45.648;9.004;2023-07-13T11:41:21;98857.31;;;30.42;43.83
59063;BME280;44851;45.648;9.004;2023-07-13T11:44:01;98868.91;;;30.27;43.00
59063;BME280;44851;45.648;9.004;2023-07-13T11:46:28;98867.84;;;29.92;44.52
59063;BME280;44851;45.648;9.004;2023-07-13T11:48:54;98872.13;;;29.63;44.08
59063;BME280;44851;45.648;9.004;2023-07-13T11:51:23;98890.34;;;29.50;44.69
59063;BME280;44851;45.648;9.004;2023-07-13T11:53:51;98894.66;;;29.36;46.14
59063;BME280;44851;45.648;9.004;2023-07-13T11:56:17;98884.63;;;29.21;47.44
59063;BME280;44851;45.648;9.004;2023-07-13T11:58:43;98879.44;;;28.89;44.74
59063;BME280;44851;45.648;9.004;2023-07-13T12:01:18;98869.19;;;28.86;45.12
59063;BME280;44851;45.648;9.004;2023-07-13T12:03:45;98866.28;;;28.98;47.78
59063;BME280;44851;45.648;9.004;2023-07-13T12:06:32;98870.31;;;28.90;45.75
59063;BME280;44851;45.648;9.004;2023-07-13T12:09:08;98869.81;;;28.98;48.29
59063;BME280;44851;45.648;9.004;2023-07-13T12:11:40;98862.69;;;28.72;46.48
59063;BME280;44851;45.648;9.004;2023-07-13T12:14:13;98871.88;;;28.86;47.72
59063;BME280;44851;45.648;9.004;2023-07-13T12:16:40;98872.84;;;28.65;48.18
59063;BME280;44851;45.648;9.004;2023-07-13T12:19:18;98855.69;;;28.71;48.57
59063;BME280;44851;45.648;9.004;2023-07-13T12:21:45;98854.78;;;28.50;46.93
59063;BME280;44851;45.648;9.004;2023-07-13T12:24:16;98856.13;;;28.47;47.54
59063;BME280;44851;45.648;9.004;2023-07-13T12:26:42;98854.75;;;28.40;47.92
59063;BME280;44851;45.648;9.004;2023-07-13T12:29:10;98848.78;;;28.33;47.73
59063;BME280;44851;45.648;9.004;2023-07-13T12:31:43;98851.06;;;28.14;48.33
59063;BME280;44851;45.648;9.004;2023-07-13T12:34:22;98828.75;;;28.03;48.37
59063;BME280;44851;45.648;9.004;2023-07-13T12:36:53;98823.59;;;27.96;49.03
59063;BME280;44851;45.648;9.004;2023-07-13T12:39:37;98819.91;;;28.02;48.34
59063;BME280;44851;45.648;9.004;2023-07-13T12:44:45;98809.22;;;28.02;49.68
59063;BME280;44851;45.648;9.004;2023-07-13T12:47:14;98802.81;;;28.09;49.28
59063;BME280;44851;45.648;9.004;2023-07-13T12:49:43;98803.88;;;28.08;48.74
59063;BME280;44851;45.648;9.004;2023-07-13T12:52:20;98804.31;;;27.94;48.30
59063;BME280;44851;45.648;9.004;2023-07-13T12:54:58;98828.53;;;28.10;49.09
59063;BME280;44851;45.648;9.004;2023-07-13T12:57:24;98842.94;;;27.98;50.50
59063;BME280;44851;45.648;9.004;2023-07-13T12:59:52;98837.03;;;28.01;50.84
59063;BME280;44851;45.648;9.004;2023-07-13T13:02:33;98840.97;;;28.21;50.26
59063;BME280;44851;45.648;9.004;2023-07-13T13:05:02;98839.88;;;28.22;51.84
59063;BME280;44851;45.648;9.004;2023-07-13T13:07:29;98839.47;;;28.40;52.67
59063;BME280;44851;45.648;9.004;2023-07-13T13:09:54;98834.69;;;28.47;49.53
59063;BME280;44851;45.648;9.004;2023-07-13T13:12:20;98839.56;;;28.61;49.34
59063;BME280;44851;45.648;9.004;2023-07-13T13:14:46;98846.16;;;28.95;49.09
59063;BME280;44851;45.648;9.004;2023-07-13T13:17:23;98842.53;;;29.37;49.27
59063;BME280;44851;45.648;9.004;2023-07-13T13:19:50;98835.56;;;29.82;47.78
59063;BME280;44851;45.648;9.004;2023-07-13T13:22:19;98832.91;;;29.92;46.45
59063;BME280;44851;45.648;9.004;2023-07-13T13:24:45;98828.34;;;29.93;46.68
59063;BME280;44851;45.648;9.004;2023-07-13T13:27:18;98832.63;;;29.99;48.75
59063;BME280;44851;45.648;9.004;2023-07-13T13:29:45;98815.19;;;29.91;46.03
59063;BME280;44851;45.648;9.004;2023-07-13T13:32:14;98824.03;;;29.97;47.75
59063;BME280;44851;45.648;9.004;2023-07-13T13:34:40;98827.50;;;30.13;47.95
59063;BME280;44851;45.648;9.004;2023-07-13T13:37:24;98827.19;;;30.45;48.46
59063;BME280;44851;45.648;9.004;2023-07-13T13:39:51;98832.81;;;30.53;46.83
59063;BME280;44851;45.648;9.004;2023-07-13T13:42:18;98823.03;;;30.73;45.74
59063;BME280;44851;45.648;9.004;2023-07-13T13:44:46;98823.03;;;30.78;44.86
59063;BME280;44851;45.648;9.004;2023-07-13T13:47:29;98807.91;;;30.87;44.07
59063;BME280;44851;45.648;9.004;2023-07-13T13:49:55;98812.22;;;30.83;43.91